createdAt,value
2023-04-17T00:00:52.951Z,19.15
2023-04-17T00:05:56.799Z,19.30
2023-04-17T00:11:07.062Z,18.33
2023-04-17T00:16:13.913Z,17.80
2023-04-17T00:21:15.786Z,17.27
2023-04-17T00:26:17.497Z,17.33
2023-04-17T00:31:19.496Z,15.93
2023-04-17T00:36:21.390Z,16.25
2023-04-17T00:41:23.257Z,16.80
2023-04-17T00:46:28.015Z,15.65
2023-04-17T00:51:29.767Z,16.67
2023-04-17T00:56:31.906Z,18.52
2023-04-17T01:01:33.759Z,17.38
2023-04-17T01:06:36.539Z,18.42
2023-04-17T01:11:39.337Z,18.00
2023-04-17T01:16:42.177Z,16.90
2023-04-17T01:21:46.168Z,15.88
2023-04-17T01:26:47.940Z,16.33
2023-04-17T01:31:50.419Z,15.13
2023-04-17T01:36:52.166Z,14.32
2023-04-17T01:41:54.365Z,14.30
2023-04-17T01:46:56.669Z,13.88
2023-04-17T01:51:58.268Z,14.63
2023-04-17T01:57:01.318Z,14.65
2023-04-17T02:02:03.112Z,14.40
2023-04-17T02:07:04.946Z,13.63
2023-04-17T02:12:07.987Z,15.13
2023-04-17T02:17:09.626Z,16.48
2023-04-17T02:22:11.213Z,15.52
2023-04-17T02:27:12.945Z,15.35
2023-04-17T02:32:18.383Z,17.95
2023-04-17T02:37:24.226Z,17.42
2023-04-17T02:42:27.461Z,17.60
2023-04-17T02:47:33.666Z,19.27
2023-04-17T02:52:37.454Z,17.42
2023-04-17T02:57:39.294Z,19.30
2023-04-17T03:02:41.552Z,18.30
2023-04-17T03:07:43.305Z,16.90
2023-04-17T03:12:45.171Z,16.42
2023-04-17T03:17:47.983Z,17.60
2023-04-17T03:22:51.972Z,15.57
2023-04-17T03:27:53.639Z,16.48
2023-04-17T03:32:58.970Z,15.90
2023-04-17T03:38:04.425Z,16.52
2023-04-17T03:43:07.418Z,14.68
2023-04-17T03:48:09.271Z,14.07
2023-04-17T03:53:12.559Z,14.95
2023-04-17T03:58:14.634Z,14.85
2023-04-17T04:03:16.514Z,14.30
2023-04-17T04:08:18.499Z,14.88
2023-04-17T04:13:24.184Z,17.02
2023-04-17T04:18:30.792Z,15.50
2023-04-17T04:23:33.850Z,15.27
2023-04-17T04:28:36.147Z,14.93
2023-04-17T04:33:38.213Z,15.27
2023-04-17T04:38:40.464Z,15.50
2023-04-17T04:43:51.621Z,16.08
2023-04-17T04:48:53.422Z,16.70
2023-04-17T04:53:55.293Z,17.52
2023-04-17T04:58:58.520Z,16.13
2023-04-17T05:04:01.309Z,16.20
2023-04-17T05:09:04.517Z,15.85
2023-04-17T05:14:09.324Z,15.73
2023-04-17T05:19:14.984Z,16.10
2023-04-17T05:24:43.080Z,15.13
2023-04-17T05:29:44.989Z,14.80
2023-04-17T05:34:47.167Z,16.08
2023-04-17T05:39:50.103Z,16.70
2023-04-17T05:44:52.043Z,14.90
2023-04-17T05:49:57.491Z,16.00
2023-04-17T05:55:02.942Z,16.15
2023-04-17T06:00:13.125Z,15.57
2023-04-17T06:05:24.348Z,16.15
2023-04-17T06:10:29.291Z,18.58
2023-04-17T06:15:31.450Z,17.17
2023-04-17T06:20:33.324Z,17.92
2023-04-17T06:25:38.014Z,15.98
2023-04-17T06:30:39.792Z,22.80
2023-04-17T06:35:42.562Z,17.05
2023-04-17T06:40:53.249Z,15.60
2023-04-17T06:45:55.316Z,18.70
2023-04-17T06:50:56.986Z,19.30
2023-04-17T06:55:58.753Z,17.92
2023-04-17T07:01:00.462Z,18.75
2023-04-17T07:06:02.468Z,21.20
2023-04-17T07:11:04.164Z,20.83
2023-04-17T07:16:06.434Z,20.65
2023-04-17T07:21:08.337Z,18.85
2023-04-17T07:26:11.049Z,19.48
2023-04-17T07:31:12.722Z,21.20
2023-04-17T07:36:14.488Z,21.38
2023-04-17T07:41:16.331Z,21.85
2023-04-17T07:46:18.058Z,24.60
2023-04-17T07:51:19.796Z,22.02
2023-04-17T07:56:21.423Z,24.17
2023-04-17T08:01:23.163Z,23.25
2023-04-17T08:06:25.049Z,24.30
2023-04-17T08:11:26.708Z,21.95
2023-04-17T08:16:28.797Z,21.98
2023-04-17T08:21:31.177Z,21.02
2023-04-17T08:26:33.117Z,24.85
2023-04-17T08:31:39.965Z,21.35
2023-04-17T08:36:43.061Z,21.77
2023-04-17T08:42:11.912Z,22.08
2023-04-17T08:47:18.282Z,21.58
2023-04-17T08:52:19.983Z,22.85
2023-04-17T08:57:23.968Z,23.08
2023-04-17T09:02:27.617Z,22.30
2023-04-17T09:07:30.737Z,20.95
2023-04-17T09:12:32.326Z,22.13
2023-04-17T09:17:38.561Z,22.73
2023-04-17T09:22:41.231Z,20.73
2023-04-17T09:27:42.958Z,20.98
2023-04-17T09:32:44.704Z,20.98
2023-04-17T09:37:59.169Z,19.17
2023-04-17T09:43:03.857Z,19.13
2023-04-17T09:48:11.004Z,19.17
2023-04-17T09:53:13.902Z,17.85
2023-04-17T09:58:16.564Z,17.88
2023-04-17T10:03:18.558Z,18.33
2023-04-17T10:08:20.601Z,17.88
2023-04-17T10:13:27.253Z,19.23
2023-04-17T10:18:28.993Z,19.63
2023-04-17T10:23:33.317Z,18.65
2023-04-17T10:28:52.177Z,18.83
2023-04-17T10:33:54.396Z,17.67
2023-04-17T10:39:13.173Z,18.77
2023-04-17T10:44:15.063Z,19.15
2023-04-17T10:49:16.850Z,17.50
2023-04-17T10:54:18.572Z,18.25
2023-04-17T10:59:22.118Z,17.95
2023-04-17T11:04:27.235Z,19.00
2023-04-17T11:09:29.639Z,18.92
2023-04-17T11:14:32.126Z,17.65
2023-04-17T11:19:33.851Z,19.65
2023-04-17T11:24:37.490Z,17.70
2023-04-17T11:29:39.097Z,17.05
2023-04-17T11:34:41.291Z,16.73
2023-04-17T11:39:43.515Z,17.63
2023-04-17T11:44:45.187Z,16.20
2023-04-17T11:49:47.150Z,16.27
2023-04-17T11:55:00.450Z,17.20
2023-04-17T12:00:12.310Z,16.83
2023-04-17T12:05:15.945Z,15.57
2023-04-17T12:10:18.355Z,14.13
2023-04-17T12:15:19.939Z,11.88
2023-04-17T12:20:21.550Z,11.23
2023-04-17T12:25:24.514Z,15.90
2023-04-17T12:30:29.460Z,16.05
2023-04-17T12:35:33.517Z,12.65
2023-04-17T12:40:35.106Z,15.85
2023-04-17T12:45:45.723Z,16.20
2023-04-17T12:50:47.459Z,12.98
2023-04-17T12:55:49.253Z,16.40
2023-04-17T13:00:51.084Z,16.65
2023-04-17T13:06:03.647Z,15.50
2023-04-17T13:11:28.705Z,9.38
2023-04-17T13:17:01.006Z,8.50
2023-04-17T13:22:41.739Z,15.43
2023-04-17T13:29:00.261Z,15.98
2023-04-17T13:35:23.702Z,12.25
2023-04-17T13:41:15.520Z,6.55
2023-04-17T13:46:24.426Z,12.73
2023-04-17T13:51:27.291Z,12.88
2023-04-17T13:56:29.396Z,14.52
2023-04-17T14:01:31.040Z,13.82
2023-04-17T14:06:37.484Z,13.15
2023-04-17T14:11:39.301Z,15.35
2023-04-17T14:16:41.364Z,15.25
2023-04-17T14:21:43.100Z,13.02
2023-04-17T14:26:44.896Z,19.55
2023-04-17T14:31:46.740Z,10.52
2023-04-17T14:36:48.809Z,16.60
2023-04-17T14:41:50.604Z,13.18
2023-04-17T14:46:52.494Z,15.45
2023-04-17T14:51:55.005Z,14.85
2023-04-17T14:56:57.848Z,16.48
2023-04-17T15:01:59.693Z,15.50
2023-04-17T15:07:01.433Z,15.57
2023-04-17T15:12:03.150Z,14.85
2023-04-17T15:17:07.676Z,15.70
2023-04-17T15:22:09.367Z,15.48
2023-04-17T15:27:11.641Z,15.90
2023-04-17T15:32:13.476Z,15.38
2023-04-17T15:37:15.234Z,14.45
2023-04-17T15:42:16.924Z,15.68
2023-04-17T15:47:18.602Z,15.35
2023-04-17T15:52:20.586Z,14.43
2023-04-17T15:57:23.536Z,15.63
2023-04-17T16:02:26.113Z,15.45
2023-04-17T16:07:27.812Z,16.65
2023-04-17T16:12:29.450Z,15.38
2023-04-17T16:17:31.091Z,15.20
2023-04-17T16:22:32.876Z,15.45
2023-04-17T16:27:34.805Z,14.45
2023-04-17T16:32:37.632Z,14.35
2023-04-17T16:37:39.658Z,15.02
2023-04-17T16:42:41.278Z,16.38
2023-04-17T16:47:42.968Z,14.88
2023-04-17T16:52:44.695Z,14.20
2023-04-17T16:57:47.923Z,16.00
2023-04-17T17:02:49.759Z,13.80
2023-04-17T17:07:51.510Z,13.55
2023-04-17T17:12:53.355Z,12.45
2023-04-17T17:17:55.133Z,14.85
2023-04-17T17:22:56.788Z,22.75
2023-04-17T17:27:58.405Z,16.77
2023-04-17T17:33:00.483Z,19.88
2023-04-17T17:38:02.242Z,18.50
2023-04-17T17:43:03.904Z,18.80
2023-04-17T17:48:06.280Z,16.67
2023-04-17T17:53:07.966Z,17.42
2023-04-17T17:58:09.645Z,17.67
2023-04-17T18:03:11.524Z,17.13
2023-04-17T18:08:14.352Z,16.58
2023-04-17T18:13:16.144Z,17.88
2023-04-17T18:18:17.808Z,17.42
2023-04-17T18:23:19.511Z,18.02
2023-04-17T18:28:21.286Z,15.13
2023-04-17T18:33:23.036Z,16.67
2023-04-17T18:38:25.525Z,15.60
2023-04-17T18:43:28.828Z,16.00
2023-04-17T18:48:30.743Z,16.17
2023-04-17T18:53:32.663Z,17.20
2023-04-17T18:58:34.235Z,15.80
2023-04-17T19:03:39.883Z,15.98
2023-04-17T19:08:41.862Z,16.00
2023-04-17T19:13:45.098Z,16.10
2023-04-17T19:18:46.843Z,16.08
2023-04-17T19:23:49.605Z,16.50
2023-04-17T19:28:51.385Z,15.95
2023-04-17T19:33:56.123Z,16.30
2023-04-17T19:38:59.719Z,16.50
2023-04-17T19:44:01.442Z,17.27
2023-04-17T19:49:03.327Z,16.23
2023-04-17T19:54:05.053Z,16.83
2023-04-17T19:59:12.776Z,16.63
2023-04-17T20:04:16.922Z,16.17
2023-04-17T20:09:19.361Z,15.70
2023-04-17T20:14:21.350Z,17.17
2023-04-17T20:19:23.874Z,15.30
2023-04-17T20:24:25.542Z,14.60
2023-04-17T20:29:27.335Z,17.00
2023-04-17T20:34:29.064Z,14.52
2023-04-17T20:39:30.828Z,16.58
2023-04-17T20:44:32.845Z,14.00
2023-04-17T20:49:34.576Z,15.13
2023-04-17T20:54:38.184Z,15.07
2023-04-17T20:59:39.850Z,12.10
2023-04-17T21:04:57.738Z,12.95
2023-04-17T21:09:59.487Z,12.65
2023-04-17T21:15:01.210Z,12.85
2023-04-17T21:20:09.568Z,13.35
2023-04-17T21:25:11.322Z,13.48
2023-04-17T21:30:13.170Z,13.90
2023-04-17T21:35:14.849Z,11.52
2023-04-17T21:40:17.168Z,12.40
2023-04-17T21:45:19.545Z,12.80
2023-04-17T21:50:21.170Z,12.60
2023-04-17T21:55:22.854Z,12.45
2023-04-17T22:00:24.777Z,13.30
2023-04-17T22:05:26.806Z,11.73
2023-04-17T22:10:29.268Z,12.18
2023-04-17T22:15:30.975Z,12.27
2023-04-17T22:20:32.739Z,10.00
2023-04-17T22:25:34.512Z,12.02
2023-04-17T22:30:36.160Z,11.48
2023-04-17T22:35:37.929Z,11.63
2023-04-17T22:40:40.650Z,12.60
2023-04-17T22:45:42.520Z,11.07
2023-04-17T22:50:45.563Z,12.90
2023-04-17T22:55:47.190Z,12.85
2023-04-17T23:00:49.083Z,13.32
2023-04-17T23:05:53.432Z,13.55
2023-04-17T23:10:57.741Z,12.05
2023-04-17T23:15:59.454Z,13.18
2023-04-17T23:21:01.109Z,12.50
2023-04-17T23:26:02.798Z,13.15
2023-04-17T23:31:07.941Z,12.40
2023-04-17T23:36:09.664Z,12.00
2023-04-17T23:41:11.690Z,12.80
2023-04-17T23:46:13.777Z,12.82
2023-04-17T23:51:15.506Z,11.95
2023-04-17T23:56:18.135Z,12.82
